createdAt,value
2023-10-02T00:01:38.374Z,16.51
2023-10-02T00:03:42.750Z,16.50
2023-10-02T00:06:08.081Z,16.55
2023-10-02T00:08:26.695Z,16.57
2023-10-02T00:10:31.899Z,16.57
2023-10-02T00:12:36.404Z,16.50
2023-10-02T00:14:45.223Z,16.40
2023-10-02T00:17:02.297Z,16.40
2023-10-02T00:19:19.997Z,16.42
2023-10-02T00:21:23.910Z,16.33
2023-10-02T00:23:26.956Z,16.37
2023-10-02T00:25:29.686Z,16.31
2023-10-02T00:27:32.535Z,16.32
2023-10-02T00:29:36.012Z,16.30
2023-10-02T00:31:39.630Z,16.22
2023-10-02T00:33:42.228Z,16.19
2023-10-02T00:35:53.947Z,16.13
2023-10-02T00:37:56.905Z,16.13
2023-10-02T00:40:00.513Z,16.03
2023-10-02T00:42:22.879Z,16.02
2023-10-02T00:44:25.329Z,15.95
2023-10-02T00:46:27.845Z,15.92
2023-10-02T00:48:30.673Z,15.92
2023-10-02T00:50:50.733Z,15.91
2023-10-02T00:53:04.893Z,15.84
2023-10-02T00:55:08.518Z,15.88
2023-10-02T00:57:18.585Z,15.87
2023-10-02T00:59:24.474Z,15.84
2023-10-02T01:01:27.859Z,15.82
2023-10-02T01:03:50.350Z,15.79
2023-10-02T01:05:55.624Z,15.81
2023-10-02T01:08:00.116Z,15.78
2023-10-02T01:10:09.638Z,15.79
2023-10-02T01:12:12.554Z,15.73
2023-10-02T01:14:35.028Z,15.71
2023-10-02T01:16:38.110Z,15.65
2023-10-02T01:18:41.225Z,15.62
2023-10-02T01:20:54.944Z,15.56
2023-10-02T01:23:13.382Z,15.56
2023-10-02T01:25:17.488Z,15.55
2023-10-02T01:27:23.523Z,15.56
2023-10-02T01:29:26.013Z,15.53
2023-10-02T01:31:37.489Z,15.53
2023-10-02T01:33:40.424Z,15.56
2023-10-02T01:35:48.023Z,15.53
2023-10-02T01:37:53.888Z,15.52
2023-10-02T01:40:16.199Z,15.49
2023-10-02T01:42:18.643Z,15.46
2023-10-02T01:44:24.409Z,15.42
2023-10-02T01:46:27.062Z,15.44
2023-10-02T01:48:39.520Z,15.44
2023-10-02T01:50:46.379Z,15.39
2023-10-02T01:52:52.461Z,15.37
2023-10-02T01:54:55.853Z,15.39
2023-10-02T01:56:58.865Z,15.34
2023-10-02T01:59:12.293Z,15.31
2023-10-02T02:01:16.940Z,15.28
2023-10-02T02:03:20.314Z,15.34
2023-10-02T02:05:22.906Z,15.30
2023-10-02T02:07:25.308Z,15.25
2023-10-02T02:09:37.726Z,15.15
2023-10-02T02:11:40.037Z,15.16
2023-10-02T02:13:46.595Z,15.16
2023-10-02T02:15:53.117Z,15.14
2023-10-02T02:17:55.997Z,15.12
2023-10-02T02:20:12.579Z,15.11
2023-10-02T02:22:27.630Z,15.03
2023-10-02T02:24:36.173Z,15.08
2023-10-02T02:26:43.036Z,15.04
2023-10-02T02:28:46.051Z,15.03
2023-10-02T02:30:49.033Z,15.02
2023-10-02T02:32:56.235Z,15.00
2023-10-02T02:35:02.842Z,14.96
2023-10-02T02:37:07.988Z,14.98
2023-10-02T02:39:17.762Z,14.95
2023-10-02T02:41:20.273Z,14.98
2023-10-02T02:43:24.385Z,14.96
2023-10-02T02:45:31.608Z,14.95
2023-10-02T02:47:52.842Z,14.95
2023-10-02T02:50:01.345Z,14.95
2023-10-02T02:52:03.952Z,14.92
2023-10-02T02:54:06.814Z,14.92
2023-10-02T02:56:25.441Z,14.92
2023-10-02T02:58:30.713Z,14.90
2023-10-02T03:00:33.558Z,14.85
2023-10-02T03:02:38.049Z,14.88
2023-10-02T03:04:40.772Z,14.85
2023-10-02T03:06:43.536Z,14.83
2023-10-02T03:08:46.966Z,14.76
2023-10-02T03:10:58.807Z,14.77
2023-10-02T03:13:02.362Z,14.75
2023-10-02T03:15:07.234Z,14.74
2023-10-02T03:17:30.089Z,14.76
2023-10-02T03:19:32.889Z,14.74
2023-10-02T03:21:39.752Z,14.71
2023-10-02T03:23:43.929Z,14.70
2023-10-02T03:25:49.136Z,14.70
2023-10-02T03:27:52.269Z,14.71
2023-10-02T03:29:55.559Z,14.71
2023-10-02T03:31:59.510Z,14.70
2023-10-02T03:34:23.627Z,14.67
2023-10-02T03:36:26.024Z,14.71
2023-10-02T03:38:34.544Z,14.66
2023-10-02T03:40:36.978Z,14.66
2023-10-02T03:42:39.421Z,14.66
2023-10-02T03:44:46.958Z,14.64
2023-10-02T03:46:50.246Z,14.63
2023-10-02T03:49:00.526Z,14.63
2023-10-02T03:51:06.360Z,14.54
2023-10-02T03:53:30.395Z,14.57
2023-10-02T03:55:35.196Z,14.52
2023-10-02T03:57:57.106Z,14.53
2023-10-02T04:00:18.808Z,14.50
2023-10-02T04:02:27.173Z,14.47
2023-10-02T04:04:34.094Z,14.47
2023-10-02T04:06:39.457Z,14.47
2023-10-02T04:08:42.542Z,14.46
2023-10-02T04:11:00.309Z,14.47
2023-10-02T04:13:03.465Z,14.44
2023-10-02T04:15:12.858Z,14.41
2023-10-02T04:17:18.064Z,14.36
2023-10-02T04:19:26.971Z,14.34
2023-10-02T04:21:31.072Z,14.32
2023-10-02T04:23:39.822Z,14.32
2023-10-02T04:25:44.514Z,14.29
2023-10-02T04:27:46.944Z,14.28
2023-10-02T04:30:08.186Z,14.27
2023-10-02T04:32:20.182Z,14.24
2023-10-02T04:34:31.229Z,14.23
2023-10-02T04:36:36.413Z,14.21
2023-10-02T04:38:51.426Z,14.15
2023-10-02T04:40:54.112Z,14.14
2023-10-02T04:43:00.076Z,14.13
2023-10-02T04:45:21.975Z,14.12
2023-10-02T04:47:28.473Z,14.10
2023-10-02T04:49:31.060Z,14.11
2023-10-02T04:51:37.513Z,14.10
2023-10-02T04:53:47.500Z,14.11
2023-10-02T04:56:15.191Z,14.08
2023-10-02T04:58:21.581Z,14.07
2023-10-02T05:00:34.387Z,14.10
2023-10-02T05:02:40.701Z,14.08
2023-10-02T05:04:44.205Z,14.07
2023-10-02T05:06:54.492Z,14.07
2023-10-02T05:08:57.108Z,14.07
2023-10-02T05:11:07.085Z,14.10
2023-10-02T05:13:11.204Z,14.09
2023-10-02T05:15:22.305Z,14.10
2023-10-02T05:17:43.425Z,14.15
2023-10-02T05:19:58.564Z,14.18
2023-10-02T05:22:02.488Z,14.22
2023-10-02T05:24:13.757Z,14.25
2023-10-02T05:26:31.428Z,14.29
2023-10-02T05:28:46.892Z,14.33
2023-10-02T05:30:49.856Z,14.36
2023-10-02T05:32:53.456Z,14.36
2023-10-02T05:35:14.480Z,14.41
2023-10-02T05:37:24.577Z,14.52
2023-10-02T05:39:29.748Z,14.59
2023-10-02T05:41:42.532Z,14.70
2023-10-02T05:43:57.260Z,14.85
2023-10-02T05:45:59.956Z,14.89
2023-10-02T05:48:02.358Z,14.92
2023-10-02T05:50:06.048Z,15.08
2023-10-02T05:52:12.444Z,15.19
2023-10-02T05:54:15.405Z,15.30
2023-10-02T05:56:17.928Z,15.50
2023-10-02T05:58:29.114Z,15.54
2023-10-02T06:00:37.354Z,15.58
2023-10-02T06:03:00.785Z,15.70
2023-10-02T06:05:13.496Z,15.82
2023-10-02T06:07:39.171Z,15.85
2023-10-02T06:09:48.516Z,15.93
2023-10-02T06:12:07.205Z,16.00
2023-10-02T06:14:12.762Z,16.03
2023-10-02T06:16:16.052Z,16.13
2023-10-02T06:18:29.165Z,16.25
2023-10-02T06:20:32.024Z,16.39
2023-10-02T06:22:34.501Z,16.48
2023-10-02T06:24:37.595Z,16.57
2023-10-02T06:26:59.514Z,16.65
2023-10-02T06:29:21.027Z,16.75
2023-10-02T06:31:32.673Z,16.87
2023-10-02T06:33:39.304Z,16.95
2023-10-02T06:35:55.550Z,17.07
2023-10-02T06:38:18.902Z,17.16
2023-10-02T06:40:25.142Z,17.28
2023-10-02T06:42:30.417Z,17.34
2023-10-02T06:44:53.813Z,17.43
2023-10-02T06:46:58.002Z,17.55
2023-10-02T06:49:00.835Z,17.72
2023-10-02T06:51:05.915Z,17.82
2023-10-02T06:53:09.112Z,17.86
2023-10-02T06:55:13.210Z,17.87
2023-10-02T06:57:18.203Z,18.02
2023-10-02T06:59:23.301Z,18.17
2023-10-02T07:01:29.550Z,18.24
2023-10-02T07:03:35.700Z,18.33
2023-10-02T07:05:40.682Z,18.41
2023-10-02T07:08:00.887Z,18.49
2023-10-02T07:10:09.955Z,18.60
2023-10-02T07:12:15.219Z,18.70
2023-10-02T07:14:18.172Z,18.75
2023-10-02T07:16:20.652Z,18.87
2023-10-02T07:18:36.906Z,18.98
2023-10-02T07:20:45.834Z,19.02
2023-10-02T07:22:52.946Z,19.10
2023-10-02T07:25:00.323Z,19.17
2023-10-02T07:27:03.868Z,19.28
2023-10-02T07:29:06.392Z,19.34
2023-10-02T07:31:12.138Z,19.42
2023-10-02T07:33:15.235Z,19.55
2023-10-02T07:35:23.607Z,19.61
2023-10-02T07:37:26.973Z,19.66
2023-10-02T07:39:39.090Z,19.68
2023-10-02T07:41:42.466Z,19.76
2023-10-02T07:43:45.760Z,19.86
2023-10-02T07:46:16.232Z,19.97
2023-10-02T07:48:21.320Z,19.97
2023-10-02T07:50:35.030Z,20.06
2023-10-02T07:52:39.725Z,20.21
2023-10-02T07:54:50.086Z,20.34
2023-10-02T07:56:53.369Z,20.47
2023-10-02T07:58:56.771Z,20.56
2023-10-02T08:01:07.821Z,20.62
2023-10-02T08:03:33.565Z,20.66
2023-10-02T08:05:36.532Z,20.75
2023-10-02T08:07:44.386Z,20.85
2023-10-02T08:09:49.623Z,20.92
2023-10-02T08:11:53.966Z,20.96
2023-10-02T08:13:56.448Z,21.02
2023-10-02T08:15:59.896Z,21.12
2023-10-02T08:18:05.871Z,21.23
2023-10-02T08:20:18.012Z,21.31
2023-10-02T08:22:21.608Z,21.39
2023-10-02T08:24:23.994Z,21.47
2023-10-02T08:26:28.636Z,21.48
2023-10-02T08:28:35.177Z,21.67
2023-10-02T08:30:38.667Z,21.74
2023-10-02T08:32:41.266Z,21.73
2023-10-02T08:34:43.863Z,21.75
2023-10-02T08:36:47.650Z,21.82
2023-10-02T08:38:55.137Z,21.89
2023-10-02T08:41:05.543Z,21.83
2023-10-02T08:43:08.090Z,21.99
2023-10-02T08:45:29.400Z,22.07
2023-10-02T08:47:36.989Z,22.20
2023-10-02T08:49:42.836Z,22.30
2023-10-02T08:51:51.484Z,22.35
2023-10-02T08:53:59.530Z,22.33
2023-10-02T08:56:01.858Z,22.39
2023-10-02T08:58:17.666Z,22.38
2023-10-02T09:00:25.810Z,22.41
2023-10-02T09:02:28.706Z,22.45
2023-10-02T09:04:31.388Z,22.53
2023-10-02T09:06:42.843Z,22.56
2023-10-02T09:09:05.146Z,22.61
2023-10-02T09:11:09.583Z,22.64
2023-10-02T09:13:17.937Z,22.64
2023-10-02T09:15:34.648Z,22.77
2023-10-02T09:17:45.753Z,22.79
2023-10-02T09:19:55.598Z,22.83
2023-10-02T09:22:12.366Z,22.92
2023-10-02T09:24:20.838Z,23.03
2023-10-02T09:26:25.924Z,23.16
2023-10-02T09:28:43.356Z,23.11
2023-10-02T09:30:47.361Z,23.20
2023-10-02T09:33:04.211Z,23.30
2023-10-02T09:35:15.597Z,23.39
2023-10-02T09:38:03.437Z,23.44
2023-10-02T09:39:51.514Z,23.55
2023-10-02T09:42:08.343Z,23.61
2023-10-02T09:44:30.166Z,23.64
2023-10-02T09:46:36.901Z,23.62
2023-10-02T09:49:04.317Z,23.77
2023-10-02T09:51:12.066Z,23.77
2023-10-02T09:53:18.015Z,23.81
2023-10-02T09:55:43.501Z,23.82
2023-10-02T09:57:51.805Z,23.97
2023-10-02T09:59:56.449Z,24.01
2023-10-02T10:02:10.648Z,23.94
2023-10-02T10:04:31.835Z,23.94
2023-10-02T10:06:50.400Z,23.93
2023-10-02T10:09:13.920Z,23.96
2023-10-02T10:11:20.291Z,23.94
2023-10-02T10:13:33.662Z,24.01
2023-10-02T10:15:37.921Z,24.05
2023-10-02T10:17:51.233Z,24.07
2023-10-02T10:20:11.043Z,24.11
2023-10-02T10:22:36.931Z,24.17
2023-10-02T10:25:21.325Z,24.31
2023-10-02T10:27:39.987Z,24.34
2023-10-02T10:29:43.466Z,24.39
2023-10-02T10:31:57.678Z,24.47
2023-10-02T10:34:01.295Z,24.52
2023-10-02T10:36:10.569Z,24.55
2023-10-02T10:38:28.476Z,24.57
2023-10-02T10:41:01.096Z,24.57
2023-10-02T10:43:07.589Z,24.61
2023-10-02T10:45:12.253Z,24.58
2023-10-02T10:47:19.792Z,24.62
2023-10-02T10:49:25.839Z,24.70
2023-10-02T10:51:35.512Z,24.67
2023-10-02T10:53:43.118Z,24.65
2023-10-02T10:55:46.308Z,24.65
2023-10-02T10:57:53.074Z,24.75
2023-10-02T11:00:28.503Z,24.67
2023-10-02T11:02:31.131Z,24.72
2023-10-02T11:04:35.814Z,24.74
2023-10-02T11:06:46.211Z,24.80
2023-10-02T11:09:17.691Z,24.88
2023-10-02T11:11:27.040Z,24.89
2023-10-02T11:13:30.771Z,24.96
2023-10-02T11:15:50.125Z,24.92
2023-10-02T11:17:52.686Z,24.83
2023-10-02T11:19:57.035Z,24.85
2023-10-02T11:22:23.270Z,24.89
2023-10-02T11:24:25.775Z,24.93
2023-10-02T11:26:28.279Z,25.07
2023-10-02T11:28:34.282Z,25.14
2023-10-02T11:30:38.454Z,25.22
2023-10-02T11:33:20.949Z,25.16
2023-10-02T11:35:30.697Z,25.17
2023-10-02T11:37:33.777Z,25.23
2023-10-02T11:39:36.489Z,25.22
2023-10-02T11:41:39.079Z,25.21
2023-10-02T11:43:41.646Z,25.19
2023-10-02T11:45:44.283Z,25.19
2023-10-02T11:47:49.745Z,25.27
2023-10-02T11:49:52.888Z,25.32
2023-10-02T11:51:55.325Z,25.32
2023-10-02T11:54:00.364Z,25.32
2023-10-02T11:56:02.925Z,25.39
2023-10-02T11:58:06.165Z,25.42
2023-10-02T12:00:13.873Z,25.42
2023-10-02T12:02:18.425Z,25.41
2023-10-02T12:04:20.968Z,25.40
2023-10-02T12:06:25.435Z,25.47
2023-10-02T12:08:28.137Z,25.45
2023-10-02T12:10:31.935Z,25.45
2023-10-02T12:12:34.499Z,25.47
2023-10-02T12:14:37.005Z,25.51
2023-10-02T12:16:39.828Z,25.49
2023-10-02T12:18:42.721Z,25.46
2023-10-02T12:20:45.231Z,25.44
2023-10-02T12:22:48.068Z,25.48
2023-10-02T12:24:50.668Z,25.52
2023-10-02T12:26:53.693Z,25.48
2023-10-02T12:28:56.972Z,25.43
2023-10-02T12:31:01.099Z,25.47
2023-10-02T12:33:03.733Z,25.48
2023-10-02T12:35:07.125Z,25.45
2023-10-02T12:37:11.309Z,25.45
2023-10-02T12:39:18.261Z,25.41
2023-10-02T12:41:28.587Z,25.32
2023-10-02T12:43:32.153Z,25.32
2023-10-02T12:45:37.889Z,25.29
2023-10-02T12:47:42.200Z,25.32
2023-10-02T12:49:44.802Z,25.35
2023-10-02T12:51:47.632Z,25.37
2023-10-02T12:53:51.136Z,25.46
2023-10-02T12:55:53.933Z,25.49
2023-10-02T12:57:56.519Z,25.47
2023-10-02T12:59:58.944Z,25.50
2023-10-02T13:02:03.750Z,25.51
2023-10-02T13:04:06.692Z,25.54
2023-10-02T13:06:13.598Z,25.52
2023-10-02T13:08:16.190Z,25.56
2023-10-02T13:10:18.700Z,25.54
2023-10-02T13:12:21.290Z,25.45
2023-10-02T13:14:24.917Z,25.40
2023-10-02T13:16:27.538Z,25.42
2023-10-02T13:18:31.522Z,25.41
2023-10-02T13:20:34.626Z,25.38
2023-10-02T13:22:40.170Z,25.37
2023-10-02T13:24:44.116Z,25.32
2023-10-02T13:26:46.753Z,25.28
2023-10-02T13:28:53.829Z,25.29
2023-10-02T13:30:56.411Z,25.36
2023-10-02T13:32:59.250Z,25.41
2023-10-02T13:35:01.796Z,25.41
2023-10-02T13:37:06.757Z,25.37
2023-10-02T13:39:14.734Z,25.31
2023-10-02T13:41:18.939Z,25.31
2023-10-02T13:43:21.811Z,25.26
2023-10-02T13:45:26.243Z,25.28
2023-10-02T13:47:36.857Z,25.33
2023-10-02T13:49:40.005Z,25.28
2023-10-02T13:51:43.237Z,25.31
2023-10-02T13:53:46.531Z,25.28
2023-10-02T13:55:48.968Z,25.27
2023-10-02T13:57:52.173Z,25.25
2023-10-02T13:59:54.680Z,25.24
2023-10-02T14:01:57.277Z,25.27
2023-10-02T14:04:00.212Z,25.31
2023-10-02T14:06:10.398Z,25.30
2023-10-02T14:08:13.455Z,25.28
2023-10-02T14:10:17.996Z,25.14
2023-10-02T14:12:20.570Z,25.13
2023-10-02T14:14:26.987Z,25.16
2023-10-02T14:16:29.633Z,25.11
2023-10-02T14:18:32.096Z,25.12
2023-10-02T14:20:34.771Z,25.15
2023-10-02T14:22:38.626Z,25.12
2023-10-02T14:24:41.139Z,25.12
2023-10-02T14:26:43.681Z,25.13
2023-10-02T14:28:46.671Z,25.15
2023-10-02T14:30:49.671Z,25.17
2023-10-02T14:32:52.762Z,25.13
2023-10-02T14:34:56.918Z,25.10
2023-10-02T14:37:00.271Z,25.07
2023-10-02T14:39:05.703Z,25.11
2023-10-02T14:41:10.881Z,25.08
2023-10-02T14:43:13.833Z,25.04
2023-10-02T14:45:16.778Z,25.04
2023-10-02T14:47:19.885Z,24.95
2023-10-02T14:49:22.367Z,24.92
2023-10-02T14:51:25.065Z,24.92
2023-10-02T14:53:27.971Z,24.91
2023-10-02T14:55:32.492Z,24.83
2023-10-02T14:57:36.314Z,24.84
2023-10-02T14:59:38.970Z,24.86
2023-10-02T15:01:41.568Z,24.85
2023-10-02T15:03:44.788Z,24.82
2023-10-02T15:05:47.448Z,24.77
2023-10-02T15:07:52.632Z,24.77
2023-10-02T15:09:56.107Z,24.78
2023-10-02T15:11:58.849Z,24.74
2023-10-02T15:14:01.386Z,24.75
2023-10-02T15:16:05.311Z,24.76
2023-10-02T15:18:11.651Z,24.80
2023-10-02T15:20:18.572Z,24.75
2023-10-02T15:22:21.227Z,24.73
2023-10-02T15:24:25.468Z,24.72
2023-10-02T15:26:28.168Z,24.67
2023-10-02T15:28:30.750Z,24.64
2023-10-02T15:30:33.230Z,24.60
2023-10-02T15:32:35.722Z,24.58
2023-10-02T15:34:38.313Z,24.55
2023-10-02T15:36:40.741Z,24.51
2023-10-02T15:38:46.992Z,24.50
2023-10-02T15:40:49.664Z,24.46
2023-10-02T15:42:54.621Z,24.40
2023-10-02T15:44:57.118Z,24.37
2023-10-02T15:46:59.732Z,24.33
2023-10-02T15:49:04.872Z,24.28
2023-10-02T15:51:07.374Z,24.25
2023-10-02T15:53:09.931Z,24.20
2023-10-02T15:55:14.571Z,24.15
2023-10-02T15:57:19.778Z,24.11
2023-10-02T15:59:23.214Z,24.04
2023-10-02T16:01:25.961Z,23.97
2023-10-02T16:03:28.777Z,23.91
2023-10-02T16:05:33.793Z,23.84
2023-10-02T16:07:39.909Z,23.79
2023-10-02T16:09:42.417Z,23.72
2023-10-02T16:11:44.973Z,23.62
2023-10-02T16:13:47.563Z,23.58
2023-10-02T16:15:50.045Z,23.51
2023-10-02T16:17:55.181Z,23.44
2023-10-02T16:19:57.889Z,23.40
2023-10-02T16:22:00.445Z,23.34
2023-10-02T16:24:06.136Z,23.24
2023-10-02T16:26:16.222Z,23.16
2023-10-02T16:28:18.729Z,23.12
2023-10-02T16:30:24.583Z,23.05
2023-10-02T16:32:31.629Z,22.99
2023-10-02T16:34:34.243Z,22.93
2023-10-02T16:36:36.940Z,22.88
2023-10-02T16:38:48.713Z,22.80
2023-10-02T16:40:59.552Z,22.75
2023-10-02T16:43:06.272Z,22.66
2023-10-02T16:45:18.533Z,22.61
2023-10-02T16:47:21.682Z,22.58
2023-10-02T16:49:24.497Z,22.51
2023-10-02T16:51:26.862Z,22.44
2023-10-02T16:53:29.526Z,22.38
2023-10-02T16:55:32.260Z,22.33
2023-10-02T16:57:34.770Z,22.25
2023-10-02T16:59:37.390Z,22.19
2023-10-02T17:01:40.121Z,22.15
2023-10-02T17:03:42.817Z,22.13
2023-10-02T17:05:45.425Z,22.10
2023-10-02T17:07:51.738Z,22.02
2023-10-02T17:09:57.280Z,22.00
2023-10-02T17:12:01.181Z,21.95
2023-10-02T17:14:04.044Z,21.90
2023-10-02T17:16:06.709Z,21.88
2023-10-02T17:18:09.187Z,21.85
2023-10-02T17:20:17.586Z,21.81
2023-10-02T17:22:20.706Z,21.75
2023-10-02T17:24:23.255Z,21.72
2023-10-02T17:26:27.156Z,21.66
2023-10-02T17:28:31.479Z,21.62
2023-10-02T17:30:33.926Z,21.49
2023-10-02T17:32:36.620Z,21.30
2023-10-02T17:34:40.056Z,21.23
2023-10-02T17:36:42.913Z,21.24
2023-10-02T17:38:45.501Z,21.24
2023-10-02T17:40:48.140Z,21.25
2023-10-02T17:42:51.036Z,21.24
2023-10-02T17:44:53.578Z,21.24
2023-10-02T17:46:57.506Z,21.24
2023-10-02T17:49:00.216Z,21.21
2023-10-02T17:51:03.009Z,21.18
2023-10-02T17:53:05.596Z,21.14
2023-10-02T17:55:08.934Z,21.09
2023-10-02T17:57:14.792Z,21.07
2023-10-02T17:59:18.014Z,21.04
2023-10-02T18:01:20.534Z,21.02
2023-10-02T18:03:23.232Z,20.98
2023-10-02T18:05:26.101Z,20.94
2023-10-02T18:07:32.979Z,20.89
2023-10-02T18:09:36.988Z,20.86
2023-10-02T18:11:48.578Z,20.84
2023-10-02T18:13:51.016Z,20.79
2023-10-02T18:15:55.280Z,20.76
2023-10-02T18:18:01.684Z,20.67
2023-10-02T18:20:05.140Z,20.65
2023-10-02T18:22:08.003Z,20.64
2023-10-02T18:24:12.990Z,20.57
2023-10-02T18:26:15.543Z,20.52
2023-10-02T18:28:18.206Z,20.49
2023-10-02T18:30:22.967Z,20.43
2023-10-02T18:32:25.469Z,20.40
2023-10-02T18:34:42.279Z,20.37
2023-10-02T18:36:45.181Z,20.33
2023-10-02T18:38:47.791Z,20.29
2023-10-02T18:40:59.284Z,20.21
2023-10-02T18:43:01.971Z,20.21
2023-10-02T18:45:07.678Z,20.17
2023-10-02T18:47:11.155Z,20.13
2023-10-02T18:49:16.359Z,20.09
2023-10-02T18:51:20.343Z,20.04
2023-10-02T18:53:22.980Z,19.98
2023-10-02T18:55:25.427Z,19.96
2023-10-02T18:57:28.685Z,19.95
2023-10-02T18:59:33.263Z,19.93
2023-10-02T19:01:37.136Z,19.92
2023-10-02T19:03:40.254Z,19.89
2023-10-02T19:05:46.847Z,19.88
2023-10-02T19:07:49.341Z,19.86
2023-10-02T19:09:51.857Z,19.82
2023-10-02T19:11:54.569Z,19.78
2023-10-02T19:13:57.787Z,19.73
2023-10-02T19:16:00.337Z,19.67
2023-10-02T19:18:02.993Z,19.65
2023-10-02T19:20:06.892Z,19.62
2023-10-02T19:22:09.394Z,19.62
2023-10-02T19:24:11.853Z,19.58
2023-10-02T19:26:14.923Z,19.57
2023-10-02T19:28:17.544Z,19.56
2023-10-02T19:30:20.066Z,19.53
2023-10-02T19:32:22.792Z,19.53
2023-10-02T19:34:28.384Z,19.46
2023-10-02T19:36:30.981Z,19.42
2023-10-02T19:38:36.012Z,19.42
2023-10-02T19:40:38.620Z,19.41
2023-10-02T19:42:41.342Z,19.39
2023-10-02T19:44:44.172Z,19.33
2023-10-02T19:46:49.537Z,19.34
2023-10-02T19:48:52.800Z,19.30
2023-10-02T19:50:55.562Z,19.28
2023-10-02T19:52:58.496Z,19.27
2023-10-02T19:55:01.086Z,19.12
2023-10-02T19:57:04.683Z,19.08
2023-10-02T19:59:08.023Z,19.08
2023-10-02T20:01:11.205Z,19.07
2023-10-02T20:03:13.948Z,19.09
2023-10-02T20:05:16.639Z,19.07
2023-10-02T20:07:19.332Z,19.05
2023-10-02T20:09:25.380Z,19.06
2023-10-02T20:11:28.172Z,18.99
2023-10-02T20:13:31.050Z,18.93
2023-10-02T20:15:33.643Z,18.90
2023-10-02T20:17:36.401Z,18.90
2023-10-02T20:19:40.680Z,18.88
2023-10-02T20:21:44.618Z,18.88
2023-10-02T20:23:53.543Z,18.87
2023-10-02T20:25:57.252Z,18.85
2023-10-02T20:27:59.678Z,18.78
2023-10-02T20:30:03.042Z,18.76
2023-10-02T20:32:05.733Z,18.78
2023-10-02T20:34:08.271Z,18.77
2023-10-02T20:36:11.418Z,18.75
2023-10-02T20:38:15.313Z,18.74
2023-10-02T20:40:18.011Z,18.77
2023-10-02T20:42:20.516Z,18.70
2023-10-02T20:44:23.021Z,18.70
2023-10-02T20:46:25.634Z,18.66
2023-10-02T20:48:28.528Z,18.63
2023-10-02T20:50:31.049Z,18.55
2023-10-02T20:52:33.636Z,18.48
2023-10-02T20:54:36.062Z,18.46
2023-10-02T20:56:40.319Z,18.43
2023-10-02T20:58:42.876Z,18.42
2023-10-02T21:00:45.329Z,18.41
2023-10-02T21:02:48.334Z,18.36
2023-10-02T21:04:50.935Z,18.31
2023-10-02T21:06:53.806Z,18.30
2023-10-02T21:08:59.679Z,18.28
2023-10-02T21:11:02.448Z,18.31
2023-10-02T21:13:05.062Z,18.28
2023-10-02T21:15:12.798Z,18.26
2023-10-02T21:17:15.536Z,18.28
2023-10-02T21:19:18.053Z,18.27
2023-10-02T21:21:22.481Z,18.27
2023-10-02T21:23:25.036Z,18.27
2023-10-02T21:25:27.506Z,18.24
2023-10-02T21:27:30.158Z,18.21
2023-10-02T21:29:32.615Z,18.18
2023-10-02T21:31:35.177Z,18.15
2023-10-02T21:33:37.979Z,18.16
2023-10-02T21:35:41.412Z,17.90
2023-10-02T21:37:43.971Z,17.79
2023-10-02T21:39:46.495Z,17.78
2023-10-02T21:41:49.019Z,17.78
2023-10-02T21:43:52.173Z,17.81
2023-10-02T21:45:55.473Z,17.82
2023-10-02T21:47:58.106Z,17.79
2023-10-02T21:50:01.018Z,17.67
2023-10-02T21:52:03.976Z,17.71
2023-10-02T21:54:07.353Z,17.66
2023-10-02T21:56:13.034Z,17.67
2023-10-02T21:58:15.404Z,17.69
2023-10-02T22:00:36.040Z,17.67
2023-10-02T22:02:38.418Z,17.67
2023-10-02T22:04:43.597Z,17.61
2023-10-02T22:06:47.383Z,17.51
2023-10-02T22:08:50.233Z,17.53
2023-10-02T22:10:54.085Z,17.55
2023-10-02T22:12:57.056Z,17.54
2023-10-02T22:14:59.513Z,17.54
2023-10-02T22:17:17.348Z,17.55
2023-10-02T22:19:20.324Z,17.57
2023-10-02T22:21:24.950Z,17.54
2023-10-02T22:23:28.086Z,17.46
2023-10-02T22:25:30.653Z,17.52
2023-10-02T22:27:33.722Z,17.44
2023-10-02T22:29:36.233Z,17.43
2023-10-02T22:31:39.839Z,17.42
2023-10-02T22:33:43.691Z,17.44
2023-10-02T22:35:46.332Z,17.46
2023-10-02T22:37:48.744Z,17.49
2023-10-02T22:39:51.134Z,17.50
2023-10-02T22:41:53.514Z,17.50
2023-10-02T22:43:56.093Z,17.52
2023-10-02T22:46:02.672Z,17.55
2023-10-02T22:48:06.371Z,17.56
2023-10-02T22:50:09.702Z,17.57
2023-10-02T22:52:15.693Z,17.58
2023-10-02T22:54:18.102Z,17.59
2023-10-02T22:56:20.569Z,17.55
2023-10-02T22:58:23.125Z,17.43
2023-10-02T23:00:25.743Z,17.36
2023-10-02T23:02:28.469Z,17.36
2023-10-02T23:04:31.621Z,17.29
2023-10-02T23:06:34.136Z,17.28
2023-10-02T23:08:36.837Z,17.30
2023-10-02T23:10:39.381Z,17.24
2023-10-02T23:12:41.902Z,17.14
2023-10-02T23:14:44.317Z,17.18
2023-10-02T23:16:46.917Z,16.96
2023-10-02T23:18:49.656Z,16.75
2023-10-02T23:20:52.142Z,16.68
2023-10-02T23:22:54.725Z,16.80
2023-10-02T23:24:57.605Z,16.83
2023-10-02T23:27:00.018Z,16.82
2023-10-02T23:29:02.914Z,16.70
2023-10-02T23:31:05.760Z,16.72
2023-10-02T23:33:08.316Z,16.65
2023-10-02T23:35:12.757Z,16.54
2023-10-02T23:37:15.303Z,16.66
2023-10-02T23:39:18.458Z,16.75
2023-10-02T23:41:22.564Z,16.72
2023-10-02T23:43:25.880Z,16.70
2023-10-02T23:45:29.207Z,16.78
2023-10-02T23:47:31.835Z,16.83
2023-10-02T23:49:34.289Z,16.79
2023-10-02T23:51:36.963Z,16.78
2023-10-02T23:53:43.242Z,16.72
2023-10-02T23:55:46.052Z,16.66
2023-10-02T23:57:48.501Z,16.65
2023-10-02T23:59:51.203Z,16.68
